createdAt,value
2018-07-14T00:00:46.209Z,26.6
2018-07-14T00:01:35.752Z,26.6
2018-07-14T00:02:26.339Z,26.6
2018-07-14T00:03:15.593Z,26.6
2018-07-14T00:04:06.463Z,26.6
2018-07-14T00:04:55.980Z,26.6
2018-07-14T00:05:46.671Z,26.6
2018-07-14T00:06:36.623Z,26.6
2018-07-14T00:07:26.744Z,26.6
2018-07-14T00:08:16.802Z,26.6
2018-07-14T00:09:06.582Z,26.6
2018-07-14T00:09:56.917Z,26.6
2018-07-14T00:10:47.021Z,26.6
2018-07-14T00:11:36.772Z,26.6
2018-07-14T00:12:26.098Z,26.6
2018-07-14T00:13:15.871Z,26.6
2018-07-14T00:14:06.487Z,26.6
2018-07-14T00:14:56.832Z,26.6
2018-07-14T00:15:46.074Z,26.6
2018-07-14T00:16:36.714Z,26.6
2018-07-14T00:17:26.761Z,26.6
2018-07-14T00:18:17.085Z,26.6
2018-07-14T00:19:07.387Z,26.6
2018-07-14T00:19:56.689Z,26.6
2018-07-14T00:20:47.191Z,26.5
2018-07-14T00:21:37.243Z,26.6
2018-07-14T00:22:27.298Z,26.6
2018-07-14T00:23:17.897Z,26.6
2018-07-14T00:24:07.162Z,26.6
2018-07-14T00:24:57.757Z,26.6
2018-07-14T00:25:46.813Z,26.6
2018-07-14T00:26:37.494Z,26.6
2018-07-14T00:27:27.484Z,26.5
2018-07-14T00:28:17.842Z,26.6
2018-07-14T00:29:08.141Z,26.6
2018-07-14T00:29:58.206Z,26.5
2018-07-14T00:30:47.490Z,26.5
2018-07-14T00:31:37.579Z,26.5
2018-07-14T00:32:27.620Z,26.6
2018-07-14T00:33:17.385Z,26.5
2018-07-14T00:34:08.318Z,26.5
2018-07-14T00:34:58.047Z,26.5
2018-07-14T00:35:47.756Z,26.5
2018-07-14T00:36:38.410Z,26.6
2018-07-14T00:37:28.736Z,26.5
2018-07-14T00:38:17.681Z,26.5
2018-07-14T00:39:08.647Z,26.5
2018-07-14T00:39:58.682Z,26.5
2018-07-14T00:40:49.265Z,26.5
2018-07-14T00:41:39.325Z,26.5
2018-07-14T00:42:29.180Z,26.5
2018-07-14T00:43:19.219Z,26.5
2018-07-14T00:44:09.632Z,26.5
2018-07-14T00:44:59.652Z,26.5
2018-07-14T00:45:49.144Z,26.5
2018-07-14T00:46:39.721Z,26.5
2018-07-14T00:47:29.546Z,26.5
2018-07-14T00:48:19.623Z,26.5
2018-07-14T00:49:09.387Z,26.5
2018-07-14T00:49:59.223Z,26.5
2018-07-14T00:50:49.749Z,26.5
2018-07-14T00:51:40.099Z,26.5
2018-07-14T00:52:29.899Z,26.5
2018-07-14T00:53:18.830Z,26.5
2018-07-14T00:54:10.060Z,26.5
2018-07-14T00:55:00.532Z,26.5
2018-07-14T00:55:50.454Z,26.4
2018-07-14T00:56:40.185Z,26.4
2018-07-14T00:57:30.595Z,26.4
2018-07-14T00:58:20.135Z,26.5
2018-07-14T00:59:10.457Z,26.4
2018-07-14T00:59:59.962Z,26.4
2018-07-14T01:00:50.248Z,26.5
2018-07-14T01:01:40.703Z,26.4
2018-07-14T01:02:30.366Z,26.4
2018-07-14T01:03:20.464Z,26.4
2018-07-14T01:04:10.539Z,26.4
2018-07-14T01:05:00.906Z,26.4
2018-07-14T01:05:50.946Z,26.4
2018-07-14T01:06:40.505Z,26.4
2018-07-14T01:07:31.062Z,26.4
2018-07-14T01:08:20.945Z,26.4
2018-07-14T01:09:11.185Z,26.4
2018-07-14T01:10:00.985Z,26.4
2018-07-14T01:10:51.614Z,26.4
2018-07-14T01:11:40.571Z,26.4
2018-07-14T01:12:31.179Z,26.4
2018-07-14T01:13:21.221Z,26.4
2018-07-14T01:14:11.873Z,26.4
2018-07-14T01:15:02.002Z,26.4
2018-07-14T01:15:50.956Z,26.4
2018-07-14T01:16:41.218Z,26.4
2018-07-14T01:17:32.103Z,26.4
2018-07-14T01:18:21.907Z,26.4
2018-07-14T01:19:11.641Z,26.4
2018-07-14T01:20:01.745Z,26.4
2018-07-14T01:20:51.856Z,26.4
2018-07-14T01:21:42.429Z,26.4
2018-07-14T01:22:31.399Z,26.4
2018-07-14T01:23:22.245Z,26.4
2018-07-14T01:24:12.408Z,26.4
2018-07-14T01:25:01.595Z,26.4
2018-07-14T01:25:51.626Z,26.4
2018-07-14T01:26:42.578Z,26.4
2018-07-14T01:27:32.680Z,26.4
2018-07-14T01:28:23.010Z,26.4
2018-07-14T01:29:12.427Z,26.4
2018-07-14T01:30:02.499Z,26.4
2018-07-14T01:30:51.717Z,26.4
2018-07-14T01:31:42.354Z,26.4
2018-07-14T01:32:32.407Z,26.4
2018-07-14T01:33:22.716Z,26.4
2018-07-14T01:34:13.377Z,26.4
2018-07-14T01:35:03.169Z,26.4
2018-07-14T01:35:52.677Z,26.4
2018-07-14T01:36:42.739Z,26.4
2018-07-14T01:37:33.620Z,26.4
2018-07-14T01:38:23.177Z,26.4
2018-07-14T01:39:12.343Z,26.4
2018-07-14T01:40:02.707Z,26.4
2018-07-14T01:40:53.404Z,26.4
2018-07-14T01:41:43.730Z,26.4
2018-07-14T01:42:33.222Z,26.4
2018-07-14T01:43:23.586Z,26.4
2018-07-14T01:44:14.114Z,26.4
2018-07-14T01:45:03.995Z,26.4
2018-07-14T01:45:53.174Z,26.4
2018-07-14T01:46:44.340Z,26.4
2018-07-14T01:47:34.191Z,26.4
2018-07-14T01:48:23.901Z,26.4
2018-07-14T01:49:14.275Z,26.4
2018-07-14T01:50:04.359Z,26.4
2018-07-14T01:50:54.394Z,26.4
2018-07-14T01:51:44.196Z,26.3
2018-07-14T01:52:34.224Z,26.4
2018-07-14T01:53:24.616Z,26.4
2018-07-14T01:54:14.980Z,26.4
2018-07-14T01:55:04.456Z,26.4
2018-07-14T01:55:54.249Z,26.4
2018-07-14T01:56:44.890Z,26.4
2018-07-14T01:57:34.402Z,26.4
2018-07-14T01:58:24.197Z,26.4
2018-07-14T01:59:14.814Z,26.4
2018-07-14T02:00:05.136Z,26.4
2018-07-14T02:00:55.427Z,26.4
2018-07-14T02:01:45.516Z,26.4
2018-07-14T02:02:35.053Z,26.4
2018-07-14T02:03:25.136Z,26.4
2018-07-14T02:04:14.947Z,26.4
2018-07-14T02:05:05.315Z,26.4
2018-07-14T02:05:55.334Z,26.4
2018-07-14T02:06:45.665Z,26.4
2018-07-14T02:07:34.359Z,26.3
2018-07-14T02:08:25.247Z,26.4
2018-07-14T02:09:15.549Z,26.3
2018-07-14T02:10:05.392Z,26.4
2018-07-14T02:10:55.933Z,26.3
2018-07-14T02:11:46.000Z,26.3
2018-07-14T02:12:35.771Z,26.4
2018-07-14T02:13:26.459Z,26.3
2018-07-14T02:14:16.407Z,26.4
2018-07-14T02:15:06.211Z,26.3
2018-07-14T02:15:56.298Z,26.4
2018-07-14T02:16:46.695Z,26.4
2018-07-14T02:17:36.412Z,26.4
2018-07-14T02:18:26.268Z,26.3
2018-07-14T02:19:16.862Z,26.4
2018-07-14T02:20:06.355Z,26.4
2018-07-14T02:20:55.572Z,26.4
2018-07-14T02:21:47.039Z,26.4
2018-07-14T02:22:37.085Z,26.4
2018-07-14T02:23:26.997Z,26.3
2018-07-14T02:24:16.678Z,26.4
2018-07-14T02:25:06.990Z,26.4
2018-07-14T02:25:57.359Z,26.4
2018-07-14T02:26:46.596Z,26.4
2018-07-14T02:27:36.375Z,26.4
2018-07-14T02:28:27.257Z,26.4
2018-07-14T02:29:17.113Z,26.4
2018-07-14T02:30:07.464Z,26.4
2018-07-14T02:30:57.511Z,26.4
2018-07-14T02:31:47.602Z,26.4
2018-07-14T02:32:37.521Z,26.4
2018-07-14T02:33:27.709Z,26.4
2018-07-14T02:34:18.039Z,26.4
2018-07-14T02:35:08.135Z,26.4
2018-07-14T02:35:57.860Z,26.4
2018-07-14T02:36:47.649Z,26.3
2018-07-14T02:37:37.725Z,26.4
2018-07-14T02:38:27.798Z,26.4
2018-07-14T02:39:18.159Z,26.3
2018-07-14T02:40:07.654Z,26.3
2018-07-14T02:40:57.692Z,26.3
2018-07-14T02:41:48.031Z,26.4
2018-07-14T02:42:38.121Z,26.4
2018-07-14T02:43:28.690Z,26.3
2018-07-14T02:44:18.546Z,26.3
2018-07-14T02:45:08.363Z,26.4
2018-07-14T02:45:58.614Z,26.3
2018-07-14T02:46:48.467Z,26.3
2018-07-14T02:47:38.736Z,26.4
2018-07-14T02:48:29.137Z,26.4
2018-07-14T02:49:18.890Z,26.4
2018-07-14T02:50:08.700Z,26.4
2018-07-14T02:50:59.325Z,26.3
2018-07-14T02:51:49.094Z,26.4
2018-07-14T02:52:39.418Z,26.3
2018-07-14T02:53:29.202Z,26.3
2018-07-14T02:54:19.312Z,26.3
2018-07-14T02:55:09.588Z,26.3
2018-07-14T02:55:58.936Z,26.3
2018-07-14T02:56:49.200Z,26.3
2018-07-14T02:57:38.673Z,26.4
2018-07-14T02:58:29.890Z,26.3
2018-07-14T02:59:19.663Z,26.3
2018-07-14T03:00:10.033Z,26.3
2018-07-14T03:00:59.217Z,26.4
2018-07-14T03:01:49.600Z,26.3
2018-07-14T03:02:39.959Z,26.3
2018-07-14T03:03:29.468Z,26.3
2018-07-14T03:04:19.779Z,26.3
2018-07-14T03:05:09.590Z,26.3
2018-07-14T03:05:59.056Z,26.3
2018-07-14T03:06:49.964Z,26.3
2018-07-14T03:07:40.607Z,26.4
2018-07-14T03:08:30.094Z,26.3
2018-07-14T03:09:20.426Z,26.3
2018-07-14T03:10:09.711Z,26.3
2018-07-14T03:10:59.850Z,26.3
2018-07-14T03:11:49.641Z,26.3
2018-07-14T03:12:40.176Z,26.3
2018-07-14T03:13:30.310Z,26.3
2018-07-14T03:14:20.270Z,26.3
2018-07-14T03:15:10.365Z,26.3
2018-07-14T03:16:00.918Z,26.3
2018-07-14T03:16:50.241Z,26.3
2018-07-14T03:17:41.065Z,26.3
2018-07-14T03:18:30.608Z,26.3
2018-07-14T03:19:21.611Z,26.3
2018-07-14T03:20:10.980Z,26.3
2018-07-14T03:21:01.048Z,26.3
2018-07-14T03:21:51.694Z,26.3
2018-07-14T03:22:41.714Z,26.3
2018-07-14T03:23:31.495Z,26.3
2018-07-14T03:24:21.553Z,26.3
2018-07-14T03:25:12.264Z,26.3
2018-07-14T03:26:01.691Z,26.3
2018-07-14T03:26:52.033Z,26.3
2018-07-14T03:27:41.558Z,26.3
2018-07-14T03:28:31.880Z,26.3
2018-07-14T03:29:21.937Z,26.3
2018-07-14T03:30:11.769Z,26.3
2018-07-14T03:31:02.370Z,26.3
2018-07-14T03:31:52.477Z,26.3
2018-07-14T03:32:42.211Z,26.3
2018-07-14T03:33:31.966Z,26.3
2018-07-14T03:34:21.822Z,26.3
2018-07-14T03:35:12.180Z,26.3
2018-07-14T03:36:02.094Z,26.3
2018-07-14T03:36:52.631Z,26.3
2018-07-14T03:37:41.809Z,26.3
2018-07-14T03:38:32.119Z,26.3
2018-07-14T03:39:21.917Z,26.3
2018-07-14T03:40:12.786Z,26.3
2018-07-14T03:41:02.895Z,26.3
2018-07-14T03:41:53.065Z,26.3
2018-07-14T03:42:42.418Z,26.3
2018-07-14T03:43:33.277Z,26.3
2018-07-14T03:44:23.083Z,26.3
2018-07-14T03:45:12.361Z,26.3
2018-07-14T03:46:02.956Z,26.3
2018-07-14T03:46:53.550Z,26.3
2018-07-14T03:47:43.142Z,26.3
2018-07-14T03:48:33.127Z,26.3
2018-07-14T03:49:23.232Z,26.3
2018-07-14T03:50:13.557Z,26.3
2018-07-14T03:51:03.352Z,26.3
2018-07-14T03:51:53.416Z,26.3
2018-07-14T03:52:43.197Z,26.3
2018-07-14T03:53:33.535Z,26.3
2018-07-14T03:54:23.633Z,26.3
2018-07-14T03:55:13.967Z,26.3
2018-07-14T03:56:03.957Z,26.3
2018-07-14T03:56:54.043Z,26.3
2018-07-14T03:57:43.551Z,26.3
2018-07-14T03:58:34.204Z,26.3
2018-07-14T03:59:24.249Z,26.3
2018-07-14T04:00:14.632Z,26.3
2018-07-14T04:01:03.569Z,26.3
2018-07-14T04:01:53.861Z,26.3
2018-07-14T04:02:43.404Z,26.3
2018-07-14T04:03:34.073Z,26.3
2018-07-14T04:04:24.357Z,26.3
2018-07-14T04:05:14.624Z,26.3
2018-07-14T04:06:04.780Z,26.3
2018-07-14T04:06:55.136Z,26.3
2018-07-14T04:07:44.042Z,26.3
2018-07-14T04:08:35.204Z,26.3
2018-07-14T04:09:24.759Z,26.3
2018-07-14T04:10:14.795Z,26.3
2018-07-14T04:11:05.430Z,26.3
2018-07-14T04:11:55.175Z,26.3
2018-07-14T04:12:45.288Z,26.3
2018-07-14T04:13:35.418Z,26.3
2018-07-14T04:14:25.703Z,26.3
2018-07-14T04:15:15.196Z,26.3
2018-07-14T04:16:05.609Z,26.3
2018-07-14T04:16:55.096Z,26.3
2018-07-14T04:17:45.676Z,26.3
2018-07-14T04:18:35.549Z,26.3
2018-07-14T04:19:25.485Z,26.3
2018-07-14T04:20:15.037Z,26.3
2018-07-14T04:21:05.940Z,26.3
2018-07-14T04:21:55.985Z,26.3
2018-07-14T04:22:46.018Z,26.3
2018-07-14T04:23:36.394Z,26.3
2018-07-14T04:24:25.918Z,26.3
2018-07-14T04:25:16.249Z,26.3
2018-07-14T04:26:06.274Z,26.3
2018-07-14T04:26:56.420Z,26.3
2018-07-14T04:27:46.686Z,26.3
2018-07-14T04:28:36.474Z,26.3
2018-07-14T04:29:25.781Z,26.3
2018-07-14T04:30:16.059Z,26.3
2018-07-14T04:31:06.410Z,26.3
2018-07-14T04:31:56.419Z,26.3
2018-07-14T04:32:46.839Z,26.3
2018-07-14T04:33:36.631Z,26.3
2018-07-14T04:34:26.943Z,26.3
2018-07-14T04:35:16.983Z,26.3
2018-07-14T04:36:07.364Z,26.3
2018-07-14T04:36:57.134Z,26.3
2018-07-14T04:37:47.305Z,26.3
2018-07-14T04:38:37.238Z,26.3
2018-07-14T04:39:27.319Z,26.3
2018-07-14T04:40:16.918Z,26.3
2018-07-14T04:41:06.922Z,26.3
2018-07-14T04:41:56.955Z,26.3
2018-07-14T04:42:47.318Z,26.3
2018-07-14T04:43:37.917Z,26.3
2018-07-14T04:44:27.980Z,26.3
2018-07-14T04:45:17.764Z,26.3
2018-07-14T04:46:07.607Z,26.3
2018-07-14T04:46:57.646Z,26.3
2018-07-14T04:47:48.281Z,26.3
2018-07-14T04:48:38.328Z,26.3
2018-07-14T04:49:29.011Z,26.3
2018-07-14T04:50:18.142Z,26.3
2018-07-14T04:51:08.272Z,26.3
2018-07-14T04:51:58.546Z,26.3
2018-07-14T04:52:48.123Z,26.3
2018-07-14T04:53:38.183Z,26.3
2018-07-14T04:54:27.937Z,26.3
2018-07-14T04:55:18.297Z,26.3
2018-07-14T04:56:08.442Z,26.3
2018-07-14T04:56:58.699Z,26.3
2018-07-14T04:57:48.749Z,26.3
2018-07-14T04:58:38.297Z,26.3
2018-07-14T04:59:29.104Z,26.3
2018-07-14T05:00:18.894Z,26.3
2018-07-14T05:01:08.697Z,26.3
2018-07-14T05:01:59.055Z,26.3
2018-07-14T05:02:48.626Z,26.3
2018-07-14T05:03:39.430Z,26.3
2018-07-14T05:04:29.279Z,26.3
2018-07-14T05:05:18.725Z,26.3
2018-07-14T05:06:08.594Z,26.3
2018-07-14T05:06:59.709Z,26.3
2018-07-14T05:07:49.233Z,26.3
2018-07-14T05:08:39.572Z,26.3
2018-07-14T05:09:29.359Z,26.3
2018-07-14T05:10:19.434Z,26.3
2018-07-14T05:11:10.078Z,26.3
2018-07-14T05:11:59.852Z,26.3
2018-07-14T05:12:49.359Z,26.3
2018-07-14T05:13:39.720Z,26.3
2018-07-14T05:14:29.464Z,26.3
2018-07-14T05:15:20.090Z,26.3
2018-07-14T05:16:10.148Z,26.3
2018-07-14T05:16:59.680Z,26.3
2018-07-14T05:17:49.731Z,26.3
2018-07-14T05:18:40.413Z,26.3
2018-07-14T05:19:30.260Z,26.3
2018-07-14T05:20:20.501Z,26.3
2018-07-14T05:21:10.533Z,26.3
2018-07-14T05:21:59.819Z,26.3
2018-07-14T05:22:50.403Z,26.3
2018-07-14T05:23:40.163Z,26.3
2018-07-14T05:24:29.986Z,26.3
2018-07-14T05:25:21.097Z,26.3
2018-07-14T05:26:11.182Z,26.3
2018-07-14T05:27:01.221Z,26.3
2018-07-14T05:27:51.343Z,26.3
2018-07-14T05:28:41.563Z,26.3
2018-07-14T05:29:30.574Z,26.3
2018-07-14T05:30:20.934Z,26.3
2018-07-14T05:31:11.276Z,26.3
2018-07-14T05:32:00.800Z,26.4
2018-07-14T05:32:51.153Z,26.4
2018-07-14T05:33:41.477Z,26.3
2018-07-14T05:34:31.815Z,26.4
2018-07-14T05:35:21.638Z,27.5
2018-07-14T05:36:11.387Z,31.7
2018-07-14T05:37:01.725Z,32.5
2018-07-14T05:37:50.949Z,34.4
2018-07-14T05:38:41.618Z,35.5
2018-07-14T05:39:32.171Z,35.6
2018-07-14T05:40:21.972Z,35
2018-07-14T05:41:12.020Z,34.4
2018-07-14T05:42:01.877Z,34.1
2018-07-14T05:42:52.189Z,33.9
2018-07-14T05:43:42.280Z,33.8
2018-07-14T05:44:32.607Z,33.6
2018-07-14T05:45:22.690Z,33.6
2018-07-14T05:46:12.747Z,33.4
2018-07-14T05:47:01.133Z,33.3
2018-07-14T05:47:52.059Z,33.2
2018-07-14T05:48:42.646Z,33.1
2018-07-14T05:49:32.746Z,33
2018-07-14T05:50:23.098Z,32.8
2018-07-14T05:51:12.607Z,32.8
2018-07-14T05:52:03.282Z,32.6
2018-07-14T05:52:53.014Z,32.5
2018-07-14T05:53:43.073Z,32.4
2018-07-14T05:54:32.611Z,32.3
2018-07-14T05:55:23.229Z,32.2
2018-07-14T05:56:12.951Z,32.1
2018-07-14T05:57:02.799Z,32.3
2018-07-14T05:57:53.252Z,34.4
2018-07-14T05:58:43.197Z,35.1
2018-07-14T05:59:33.501Z,36.7
2018-07-14T06:00:23.534Z,37.5
2018-07-14T06:01:13.908Z,37.7
2018-07-14T06:02:03.953Z,37.6
2018-07-14T06:02:52.692Z,37.5
2018-07-14T06:03:43.823Z,37.6
2018-07-14T06:04:33.883Z,37.8
2018-07-14T06:05:23.803Z,37.9
2018-07-14T06:06:13.975Z,38.1
2018-07-14T06:07:04.100Z,38.3
2018-07-14T06:07:55.462Z,38.4
2018-07-14T06:08:44.181Z,38.4
2018-07-14T06:09:33.440Z,38.5
2018-07-14T06:10:24.155Z,38.6
2018-07-14T06:11:14.730Z,38.6
2018-07-14T06:12:04.443Z,38.8
2018-07-14T06:12:54.786Z,38.9
2018-07-14T06:13:44.332Z,38.9
2018-07-14T06:14:34.998Z,39.1
2018-07-14T06:15:24.689Z,39.1
2018-07-14T06:16:15.045Z,39.2
2018-07-14T06:17:05.101Z,39.3
2018-07-14T06:17:55.133Z,39.4
2018-07-14T06:18:45.247Z,39.4
2018-07-14T06:19:35.636Z,39.6
2018-07-14T06:20:24.824Z,39.6
2018-07-14T06:21:15.181Z,39.7
2018-07-14T06:22:04.988Z,39.8
2018-07-14T06:22:55.588Z,39.9
2018-07-14T06:23:45.136Z,39.9
2018-07-14T06:24:34.897Z,40
2018-07-14T06:25:25.574Z,40.1
2018-07-14T06:26:15.819Z,40.2
2018-07-14T06:27:05.674Z,40.3
2018-07-14T06:27:55.683Z,40.3
2018-07-14T06:28:46.038Z,40.4
2018-07-14T06:29:35.816Z,40.5
2018-07-14T06:30:25.598Z,40.6
2018-07-14T06:31:16.195Z,40.6
2018-07-14T06:32:05.943Z,40.8
2018-07-14T06:32:56.089Z,40.8
2018-07-14T06:33:46.417Z,40.9
2018-07-14T06:34:35.153Z,40.9
2018-07-14T06:35:25.984Z,41.1
2018-07-14T06:36:16.317Z,41.1
2018-07-14T06:37:06.434Z,41.2
2018-07-14T06:37:56.459Z,41.3
2018-07-14T06:38:47.410Z,41.4
2018-07-14T06:39:36.816Z,41.4
2018-07-14T06:40:26.617Z,41.6
2018-07-14T06:41:16.977Z,41.6
2018-07-14T06:42:07.071Z,41.7
2018-07-14T06:42:57.103Z,41.8
2018-07-14T06:43:46.866Z,41.9
2018-07-14T06:44:37.499Z,41.9
2018-07-14T06:45:27.276Z,42.1
2018-07-14T06:46:16.853Z,42.1
2018-07-14T06:47:06.642Z,42.2
2018-07-14T06:47:56.918Z,42.3
2018-07-14T06:48:47.572Z,42.4
2018-07-14T06:49:37.080Z,42.5
2018-07-14T06:50:27.147Z,42.6
2018-07-14T06:51:17.780Z,42.7
2018-07-14T06:52:07.258Z,42.8
2018-07-14T06:52:57.614Z,42.9
2018-07-14T06:53:46.807Z,42.9
2018-07-14T06:54:37.791Z,43.1
2018-07-14T06:55:27.252Z,43.1
2018-07-14T06:56:16.584Z,43.3
2018-07-14T06:57:07.479Z,43.3
2018-07-14T06:57:57.773Z,43.4
2018-07-14T06:58:48.057Z,43.5
2018-07-14T06:59:38.140Z,43.5
2018-07-14T07:00:28.475Z,43.4
2018-07-14T07:01:17.687Z,43.3
2018-07-14T07:02:08.622Z,43.3
2018-07-14T07:02:57.974Z,43.3
2018-07-14T07:03:48.480Z,43.2
2018-07-14T07:04:38.535Z,43.2
2018-07-14T07:05:28.027Z,43.2
2018-07-14T07:06:18.933Z,43.3
2018-07-14T07:07:08.459Z,43.3
2018-07-14T07:07:58.781Z,43.4
2018-07-14T07:08:49.197Z,43.4
2018-07-14T07:09:38.389Z,43.6
2018-07-14T07:10:29.134Z,43.6
2018-07-14T07:11:19.371Z,43.6
2018-07-14T07:12:08.769Z,43.5
2018-07-14T07:12:59.175Z,43.4
2018-07-14T07:13:50.350Z,43.4
2018-07-14T07:14:39.525Z,43.4
2018-07-14T07:15:29.087Z,43.4
2018-07-14T07:16:19.431Z,43.4
2018-07-14T07:17:09.444Z,43.3
2018-07-14T07:17:59.796Z,43.2
2018-07-14T07:18:49.834Z,43.4
2018-07-14T07:19:39.660Z,43.6
2018-07-14T07:20:29.760Z,43.6
2018-07-14T07:21:20.304Z,43.6
2018-07-14T07:22:09.551Z,43.6
2018-07-14T07:22:59.948Z,43.5
2018-07-14T07:23:49.418Z,43.6
2018-07-14T07:24:39.777Z,43.8
2018-07-14T07:25:30.122Z,44.1
2018-07-14T07:26:20.483Z,44.3
2018-07-14T07:27:10.473Z,44.4
2018-07-14T07:27:59.563Z,44.6
2018-07-14T07:28:50.430Z,44.6
2018-07-14T07:29:39.954Z,44.8
2018-07-14T07:30:30.300Z,44.9
2018-07-14T07:31:20.325Z,45.1
2018-07-14T07:32:10.948Z,45.2
2018-07-14T07:33:01.010Z,45.3
2018-07-14T07:33:49.567Z,45.5
2018-07-14T07:34:42.180Z,45.6
2018-07-14T07:35:30.425Z,45.7
2018-07-14T07:36:21.084Z,45.8
2018-07-14T07:37:10.315Z,45.9
2018-07-14T07:38:01.394Z,46.1
2018-07-14T07:38:51.462Z,46.2
2018-07-14T07:39:40.951Z,46.4
2018-07-14T07:40:30.800Z,46.5
2018-07-14T07:41:20.460Z,46.6
2018-07-14T07:42:11.457Z,46.6
2018-07-14T07:43:01.772Z,46.5
2018-07-14T07:43:51.567Z,46.4
2018-07-14T07:44:41.623Z,46.4
2018-07-14T07:45:31.146Z,46.4
2018-07-14T07:46:21.761Z,46.4
2018-07-14T07:47:11.546Z,46.6
2018-07-14T07:48:01.872Z,46.8
2018-07-14T07:48:52.186Z,47.1
2018-07-14T07:49:42.284Z,47
2018-07-14T07:50:31.487Z,47
2018-07-14T07:51:22.141Z,46.9
2018-07-14T07:52:11.918Z,46.8
2018-07-14T07:53:01.679Z,46.8
2018-07-14T07:53:51.740Z,46.7
2018-07-14T07:54:42.421Z,46.6
2018-07-14T07:55:32.183Z,46.3
2018-07-14T07:56:22.733Z,46.2
2018-07-14T07:57:12.817Z,46.1
2018-07-14T07:58:01.526Z,46
2018-07-14T07:58:52.226Z,45.9
2018-07-14T07:59:42.737Z,45.9
2018-07-14T08:00:33.136Z,45.9
2018-07-14T08:01:21.747Z,45.9
2018-07-14T08:02:12.719Z,46
2018-07-14T08:03:02.999Z,46.3
2018-07-14T08:03:53.076Z,46.4
2018-07-14T08:04:43.163Z,46.6
2018-07-14T08:05:32.962Z,46.8
2018-07-14T08:06:23.042Z,46.8
2018-07-14T08:07:13.345Z,46.8
2018-07-14T08:08:03.183Z,46.9
2018-07-14T08:08:52.910Z,47.1
2018-07-14T08:09:43.263Z,47.3
2018-07-14T08:10:33.392Z,47.2
2018-07-14T08:11:23.111Z,47
2018-07-14T08:12:13.799Z,46.9
2018-07-14T08:13:03.846Z,47
2018-07-14T08:13:53.341Z,47.1
2018-07-14T08:14:44.214Z,47.2
2018-07-14T08:15:33.949Z,47.2
2018-07-14T08:16:24.334Z,47.1
2018-07-14T08:17:14.401Z,46.9
2018-07-14T08:18:03.639Z,46.9
2018-07-14T08:18:53.966Z,47.2
2018-07-14T08:19:44.329Z,47.6
2018-07-14T08:20:34.496Z,47.9
2018-07-14T08:21:24.432Z,48
2018-07-14T08:22:14.817Z,47.9
2018-07-14T08:23:05.518Z,47.7
2018-07-14T08:23:54.459Z,47.5
2018-07-14T08:24:44.685Z,47.4
2018-07-14T08:25:35.080Z,47.4
2018-07-14T08:26:25.108Z,47.4
2018-07-14T08:27:14.634Z,47.4
2018-07-14T08:28:05.217Z,47.4
2018-07-14T08:28:54.727Z,47.3
2018-07-14T08:29:44.847Z,47.3
2018-07-14T08:30:35.533Z,47.2
2018-07-14T08:31:25.244Z,47.1
2018-07-14T08:32:15.128Z,47
2018-07-14T08:33:04.233Z,47
2018-07-14T08:33:55.436Z,46.9
2018-07-14T08:34:45.499Z,46.9
2018-07-14T08:35:35.573Z,46.8
2018-07-14T08:36:25.345Z,46.8
2018-07-14T08:37:15.651Z,46.9
2018-07-14T08:38:05.285Z,46.9
2018-07-14T08:38:55.789Z,47
2018-07-14T08:39:46.176Z,47.1
2018-07-14T08:40:36.215Z,47.1
2018-07-14T08:41:25.809Z,47.1
2018-07-14T08:42:16.075Z,46.9
2018-07-14T08:43:05.863Z,46.9
2018-07-14T08:43:57.208Z,46.9
2018-07-14T08:44:45.958Z,47
2018-07-14T08:45:36.588Z,47.4
2018-07-14T08:46:26.655Z,47.8
2018-07-14T08:47:16.447Z,47.9
2018-07-14T08:48:06.520Z,47.8
2018-07-14T08:48:56.565Z,47.6
2018-07-14T08:49:46.164Z,47.4
2018-07-14T08:50:38.188Z,47.4
2018-07-14T08:51:26.684Z,47.4
2018-07-14T08:52:16.070Z,47.4
2018-07-14T08:53:06.667Z,47.4
2018-07-14T08:53:56.201Z,47.4
2018-07-14T08:54:45.485Z,47.4
2018-07-14T08:55:36.615Z,47.4
2018-07-14T08:56:26.690Z,47.3
2018-07-14T08:57:16.190Z,47.3
2018-07-14T08:58:06.212Z,47.2
2018-07-14T08:58:56.871Z,47.1
2018-07-14T08:59:47.519Z,47
2018-07-14T09:00:37.234Z,46.9
2018-07-14T09:01:27.525Z,46.9
2018-07-14T09:02:17.847Z,46.8
2018-07-14T09:03:07.709Z,46.8
2018-07-14T09:03:57.716Z,46.8
2018-07-14T09:04:47.794Z,46.7
2018-07-14T09:05:37.879Z,46.6
2018-07-14T09:06:27.637Z,46.6
2018-07-14T09:07:17.972Z,46.5
2018-07-14T09:08:08.009Z,46.5
2018-07-14T09:08:58.099Z,46.4
2018-07-14T09:09:48.423Z,46.4
2018-07-14T09:10:38.491Z,46.4
2018-07-14T09:11:28.006Z,46.4
2018-07-14T09:12:17.851Z,46.4
2018-07-14T09:13:08.707Z,46.4
2018-07-14T09:13:58.725Z,46.3
2018-07-14T09:14:48.570Z,46.1
2018-07-14T09:15:38.858Z,46.2
2018-07-14T09:16:29.346Z,46.5
2018-07-14T09:17:19.022Z,46.9
2018-07-14T09:18:09.073Z,47.2
2018-07-14T09:18:59.272Z,47.4
2018-07-14T09:19:48.416Z,47.5
2018-07-14T09:20:38.799Z,47.4
2018-07-14T09:21:28.538Z,47.5
2018-07-14T09:22:18.043Z,47.7
2018-07-14T09:23:08.663Z,47.8
2018-07-14T09:23:59.055Z,47.9
2018-07-14T09:24:48.831Z,48.1
2018-07-14T09:25:39.401Z,47.9
2018-07-14T09:26:29.213Z,48
2018-07-14T09:27:18.700Z,48.1
2018-07-14T09:28:08.841Z,48
2018-07-14T09:28:59.137Z,47.9
2018-07-14T09:29:49.273Z,47.9
2018-07-14T09:30:39.228Z,47.8
2018-07-14T09:31:29.149Z,47.8
2018-07-14T09:32:19.993Z,47.7
2018-07-14T09:33:09.984Z,47.6
2018-07-14T09:33:59.813Z,47.6
2018-07-14T09:34:50.503Z,47.6
2018-07-14T09:35:40.477Z,47.6
2018-07-14T09:36:30.216Z,47.6
2018-07-14T09:37:20.292Z,47.5
2018-07-14T09:38:11.005Z,47.4
2018-07-14T09:39:00.152Z,47.4
2018-07-14T09:39:50.475Z,47.4
2018-07-14T09:40:39.711Z,47.4
2018-07-14T09:41:30.041Z,47.4
2018-07-14T09:42:20.652Z,47.5
2018-07-14T09:43:11.025Z,47.5
2018-07-14T09:44:01.667Z,47.5
2018-07-14T09:44:50.636Z,47.5
2018-07-14T09:45:40.402Z,47.5
2018-07-14T09:46:30.782Z,47.5
2018-07-14T09:47:20.534Z,47.5
2018-07-14T09:48:11.167Z,47.4
2018-07-14T09:49:01.474Z,47.5
2018-07-14T09:49:50.860Z,47.7
2018-07-14T09:50:40.849Z,48.1
2018-07-14T09:51:30.353Z,48.5
2018-07-14T09:52:21.021Z,48.9
2018-07-14T09:53:10.313Z,49.1
2018-07-14T09:54:01.094Z,49.3
2018-07-14T09:54:51.158Z,49.5
2018-07-14T09:55:40.949Z,49.7
2018-07-14T09:56:31.332Z,49.9
2018-07-14T09:57:20.865Z,50.2
2018-07-14T09:58:11.118Z,50.4
2018-07-14T09:59:02.038Z,50.6
2018-07-14T09:59:51.780Z,50.6
2018-07-14T10:00:41.806Z,50.6
2018-07-14T10:01:32.402Z,50.8
2018-07-14T10:02:21.744Z,50.9
2018-07-14T10:03:12.565Z,51.1
2018-07-14T10:04:02.047Z,51.2
2018-07-14T10:04:51.935Z,51.4
2018-07-14T10:05:42.181Z,51.6
2018-07-14T10:06:31.838Z,51.8
2018-07-14T10:08:12.693Z,52.1
2018-07-14T10:09:03.066Z,52.1
2018-07-14T10:09:52.644Z,52.2
2018-07-14T10:10:43.150Z,52.3
2018-07-14T10:11:32.751Z,52.5
2018-07-14T10:12:23.370Z,52.7
2018-07-14T10:13:13.521Z,52.8
2018-07-14T10:14:02.709Z,52.7
2018-07-14T10:14:53.386Z,52.5
2018-07-14T10:15:41.960Z,52.3
2018-07-14T10:16:32.810Z,52.3
2018-07-14T10:17:24.708Z,52.6
2018-07-14T10:18:13.460Z,52.9
2018-07-14T10:19:03.791Z,53.3
2018-07-14T10:19:53.404Z,53.4
2018-07-14T10:20:44.086Z,53.6
2018-07-14T10:21:33.489Z,53.7
2018-07-14T10:22:25.129Z,53.9
2018-07-14T10:23:13.957Z,54.1
2018-07-14T10:24:03.455Z,54.2
2018-07-14T10:24:53.753Z,54.3
2018-07-14T10:25:46.729Z,54.5
2018-07-14T10:26:33.949Z,54.6
2018-07-14T10:27:23.928Z,54.4
2018-07-14T10:28:14.555Z,54.1
2018-07-14T10:29:04.663Z,53.9
2018-07-14T10:29:54.146Z,53.8
2018-07-14T10:30:44.199Z,53.7
2018-07-14T10:31:34.821Z,53.6
2018-07-14T10:32:24.074Z,53.5
2018-07-14T10:33:14.904Z,53.4
2018-07-14T10:34:05.375Z,53.4
2018-07-14T10:34:54.904Z,53.3
2018-07-14T10:35:45.176Z,53.2
2018-07-14T10:36:34.913Z,53.1
2018-07-14T10:37:25.266Z,53.1
2018-07-14T10:38:15.089Z,52.9
2018-07-14T10:39:04.854Z,52.8
2018-07-14T10:39:54.432Z,52.8
2018-07-14T10:40:44.960Z,52.7
2018-07-14T10:41:35.091Z,52.6
2018-07-14T10:42:25.280Z,52.6
2018-07-14T10:43:14.598Z,52.5
2018-07-14T10:44:05.551Z,52.4
2018-07-14T10:45:45.655Z,52.3
2018-07-14T10:46:35.790Z,52.3
2018-07-14T10:47:26.110Z,52.2
2018-07-14T10:48:15.602Z,52.1
2018-07-14T10:49:05.369Z,52.1
2018-07-14T10:51:35.686Z,51.9
2018-07-14T10:52:25.560Z,51.8
2018-07-14T10:53:15.943Z,51.8
2018-07-14T10:54:05.998Z,51.8
2018-07-14T10:54:56.677Z,51.7
2018-07-14T10:55:46.734Z,51.6
2018-07-14T10:56:35.972Z,51.6
2018-07-14T10:57:25.987Z,51.6
2018-07-14T10:58:16.903Z,51.6
2018-07-14T10:59:06.367Z,51.6
2018-07-14T10:59:56.703Z,51.6
2018-07-14T11:00:47.019Z,51.6
2018-07-14T11:01:36.589Z,51.5
2018-07-14T11:02:27.146Z,51.6
2018-07-14T11:03:17.229Z,51.9
2018-07-14T11:04:06.981Z,52.3
2018-07-14T11:04:56.831Z,52.6
2018-07-14T11:05:47.424Z,52.8
2018-07-14T11:06:37.117Z,53
2018-07-14T11:07:27.536Z,53.1
2018-07-14T11:08:17.306Z,53.4
2018-07-14T11:09:06.833Z,53.6
2018-07-14T11:09:57.464Z,53.8
2018-07-14T11:10:47.795Z,53.9